sensor_id;sensor_type;location;lat;lon;timestamp;P1;durP1;ratioP1;P2;durP2;ratioP2
16699;SDS011;8466;52.286;21.124;2023-05-10T00:00:45;9.10;;;6.77;;
16699;SDS011;8466;52.286;21.124;2023-05-10T00:03:14;10.13;;;6.87;;
16699;SDS011;8466;52.286;21.124;2023-05-10T00:05:42;9.40;;;6.77;;
16699;SDS011;8466;52.286;21.124;2023-05-10T00:08:11;9.73;;;6.47;;
16699;SDS011;8466;52.286;21.124;2023-05-10T00:10:40;7.97;;;6.80;;
16699;SDS011;8466;52.286;21.124;2023-05-10T00:13:08;7.77;;;6.50;;
16699;SDS011;8466;52.286;21.124;2023-05-10T00:15:38;8.80;;;6.83;;
16699;SDS011;8466;52.286;21.124;2023-05-10T00:18:08;8.33;;;6.73;;
16699;SDS011;8466;52.286;21.124;2023-05-10T00:20:36;7.27;;;5.97;;
16699;SDS011;8466;52.286;21.124;2023-05-10T00:23:05;9.77;;;6.30;;
16699;SDS011;8466;52.286;21.124;2023-05-10T00:25:33;7.80;;;6.10;;
16699;SDS011;8466;52.286;21.124;2023-05-10T00:28:02;7.83;;;6.33;;
16699;SDS011;8466;52.286;21.124;2023-05-10T00:30:31;8.10;;;6.20;;
16699;SDS011;8466;52.286;21.124;2023-05-10T00:32:59;10.37;;;6.50;;
16699;SDS011;8466;52.286;21.124;2023-05-10T00:35:29;9.20;;;5.83;;
16699;SDS011;8466;52.286;21.124;2023-05-10T00:37:58;8.13;;;5.93;;
16699;SDS011;8466;52.286;21.124;2023-05-10T00:40:27;6.97;;;5.90;;
16699;SDS011;8466;52.286;21.124;2023-05-10T00:42:57;10.17;;;5.80;;
16699;SDS011;8466;52.286;21.124;2023-05-10T00:45:25;7.60;;;5.63;;
16699;SDS011;8466;52.286;21.124;2023-05-10T00:47:54;6.50;;;5.43;;
16699;SDS011;8466;52.286;21.124;2023-05-10T00:50:23;8.63;;;5.60;;
16699;SDS011;8466;52.286;21.124;2023-05-10T00:52:53;7.43;;;5.47;;
16699;SDS011;8466;52.286;21.124;2023-05-10T00:55:22;10.37;;;6.23;;
16699;SDS011;8466;52.286;21.124;2023-05-10T00:57:52;7.40;;;5.63;;
16699;SDS011;8466;52.286;21.124;2023-05-10T01:00:21;9.00;;;6.20;;
16699;SDS011;8466;52.286;21.124;2023-05-10T01:02:49;5.63;;;5.03;;
16699;SDS011;8466;52.286;21.124;2023-05-10T01:05:18;6.03;;;5.43;;
16699;SDS011;8466;52.286;21.124;2023-05-10T01:07:47;6.70;;;5.00;;
16699;SDS011;8466;52.286;21.124;2023-05-10T01:10:17;7.50;;;5.20;;
16699;SDS011;8466;52.286;21.124;2023-05-10T01:12:46;8.63;;;5.83;;
16699;SDS011;8466;52.286;21.124;2023-05-10T01:15:15;6.47;;;5.23;;
16699;SDS011;8466;52.286;21.124;2023-05-10T01:17:45;6.07;;;4.93;;
16699;SDS011;8466;52.286;21.124;2023-05-10T01:20:16;5.90;;;5.30;;
16699;SDS011;8466;52.286;21.124;2023-05-10T01:29:05;8.50;;;5.13;;
16699;SDS011;8466;52.286;21.124;2023-05-10T01:31:59;6.57;;;5.20;;
16699;SDS011;8466;52.286;21.124;2023-05-10T01:34:46;6.37;;;4.67;;
16699;SDS011;8466;52.286;21.124;2023-05-10T01:37:25;9.40;;;5.00;;
16699;SDS011;8466;52.286;21.124;2023-05-10T01:40:02;5.47;;;4.83;;
16699;SDS011;8466;52.286;21.124;2023-05-10T01:42:43;6.47;;;5.40;;
16699;SDS011;8466;52.286;21.124;2023-05-10T01:45:18;7.40;;;4.90;;
16699;SDS011;8466;52.286;21.124;2023-05-10T01:47:56;6.43;;;4.50;;
16699;SDS011;8466;52.286;21.124;2023-05-10T01:50:32;5.07;;;4.17;;
16699;SDS011;8466;52.286;21.124;2023-05-10T01:53:02;5.23;;;4.70;;
16699;SDS011;8466;52.286;21.124;2023-05-10T01:55:35;5.43;;;4.70;;
16699;SDS011;8466;52.286;21.124;2023-05-10T01:58:08;5.70;;;4.57;;
16699;SDS011;8466;52.286;21.124;2023-05-10T02:00:39;5.90;;;4.70;;
16699;SDS011;8466;52.286;21.124;2023-05-10T02:03:12;5.10;;;4.30;;
16699;SDS011;8466;52.286;21.124;2023-05-10T02:05:43;6.63;;;4.80;;
16699;SDS011;8466;52.286;21.124;2023-05-10T02:08:15;5.77;;;5.27;;
16699;SDS011;8466;52.286;21.124;2023-05-10T02:10:45;9.27;;;4.70;;
16699;SDS011;8466;52.286;21.124;2023-05-10T02:13:15;4.63;;;4.13;;
16699;SDS011;8466;52.286;21.124;2023-05-10T02:15:45;5.20;;;4.67;;
16699;SDS011;8466;52.286;21.124;2023-05-10T02:18:17;6.37;;;5.23;;
16699;SDS011;8466;52.286;21.124;2023-05-10T02:20:47;6.50;;;4.73;;
16699;SDS011;8466;52.286;21.124;2023-05-10T02:23:16;6.90;;;5.20;;
16699;SDS011;8466;52.286;21.124;2023-05-10T02:25:45;6.80;;;4.87;;
16699;SDS011;8466;52.286;21.124;2023-05-10T02:28:16;6.83;;;5.00;;
16699;SDS011;8466;52.286;21.124;2023-05-10T02:30:45;7.23;;;4.97;;
16699;SDS011;8466;52.286;21.124;2023-05-10T02:33:15;7.70;;;4.87;;
16699;SDS011;8466;52.286;21.124;2023-05-10T02:35:46;5.37;;;4.53;;
16699;SDS011;8466;52.286;21.124;2023-05-10T02:38:15;6.27;;;4.57;;
16699;SDS011;8466;52.286;21.124;2023-05-10T02:40:45;7.03;;;5.07;;
16699;SDS011;8466;52.286;21.124;2023-05-10T02:43:15;4.90;;;4.40;;
16699;SDS011;8466;52.286;21.124;2023-05-10T02:45:46;6.97;;;5.20;;
16699;SDS011;8466;52.286;21.124;2023-05-10T02:48:15;10.20;;;5.20;;
16699;SDS011;8466;52.286;21.124;2023-05-10T02:50:46;7.07;;;4.87;;
16699;SDS011;8466;52.286;21.124;2023-05-10T02:53:18;6.60;;;5.40;;
16699;SDS011;8466;52.286;21.124;2023-05-10T02:55:51;8.27;;;5.37;;
16699;SDS011;8466;52.286;21.124;2023-05-10T02:58:20;7.90;;;5.50;;
16699;SDS011;8466;52.286;21.124;2023-05-10T03:00:49;5.97;;;5.03;;
16699;SDS011;8466;52.286;21.124;2023-05-10T03:03:20;7.27;;;5.57;;
16699;SDS011;8466;52.286;21.124;2023-05-10T03:05:49;8.30;;;5.63;;
16699;SDS011;8466;52.286;21.124;2023-05-10T03:08:20;6.93;;;5.40;;
16699;SDS011;8466;52.286;21.124;2023-05-10T03:10:51;6.93;;;5.27;;
16699;SDS011;8466;52.286;21.124;2023-05-10T03:13:27;7.50;;;5.27;;
16699;SDS011;8466;52.286;21.124;2023-05-10T03:16:04;7.17;;;5.57;;
16699;SDS011;8466;52.286;21.124;2023-05-10T03:18:40;7.73;;;4.90;;
16699;SDS011;8466;52.286;21.124;2023-05-10T03:21:11;8.23;;;5.33;;
16699;SDS011;8466;52.286;21.124;2023-05-10T03:23:46;6.23;;;4.80;;
16699;SDS011;8466;52.286;21.124;2023-05-10T03:26:20;5.40;;;4.73;;
16699;SDS011;8466;52.286;21.124;2023-05-10T03:28:52;8.50;;;5.23;;
16699;SDS011;8466;52.286;21.124;2023-05-10T03:31:21;7.90;;;5.23;;
16699;SDS011;8466;52.286;21.124;2023-05-10T03:33:51;6.77;;;5.07;;
16699;SDS011;8466;52.286;21.124;2023-05-10T03:36:20;6.77;;;4.90;;
16699;SDS011;8466;52.286;21.124;2023-05-10T03:38:49;8.00;;;4.97;;
16699;SDS011;8466;52.286;21.124;2023-05-10T03:41:17;5.30;;;4.80;;
16699;SDS011;8466;52.286;21.124;2023-05-10T03:43:47;7.03;;;4.80;;
16699;SDS011;8466;52.286;21.124;2023-05-10T03:46:15;8.03;;;5.53;;
16699;SDS011;8466;52.286;21.124;2023-05-10T03:48:44;7.37;;;5.37;;
16699;SDS011;8466;52.286;21.124;2023-05-10T03:51:14;6.37;;;5.00;;
16699;SDS011;8466;52.286;21.124;2023-05-10T03:53:42;7.53;;;5.13;;
16699;SDS011;8466;52.286;21.124;2023-05-10T03:56:11;7.63;;;5.10;;
16699;SDS011;8466;52.286;21.124;2023-05-10T03:58:40;6.03;;;4.77;;
16699;SDS011;8466;52.286;21.124;2023-05-10T04:01:08;8.07;;;5.10;;
16699;SDS011;8466;52.286;21.124;2023-05-10T04:03:37;6.53;;;4.83;;
16699;SDS011;8466;52.286;21.124;2023-05-10T04:06:07;9.53;;;6.00;;
16699;SDS011;8466;52.286;21.124;2023-05-10T04:08:39;6.87;;;4.40;;
16699;SDS011;8466;52.286;21.124;2023-05-10T04:11:08;12.43;;;4.67;;
16699;SDS011;8466;52.286;21.124;2023-05-10T04:13:39;5.45;;;4.18;;
16699;SDS011;8466;52.286;21.124;2023-05-10T04:16:07;5.63;;;3.93;;
16699;SDS011;8466;52.286;21.124;2023-05-10T04:18:36;8.83;;;4.30;;
16699;SDS011;8466;52.286;21.124;2023-05-10T04:21:10;4.75;;;4.22;;
16699;SDS011;8466;52.286;21.124;2023-05-10T04:23:41;9.80;;;4.20;;
16699;SDS011;8466;52.286;21.124;2023-05-10T04:26:10;6.55;;;5.00;;
16699;SDS011;8466;52.286;21.124;2023-05-10T04:28:38;6.70;;;4.60;;
16699;SDS011;8466;52.286;21.124;2023-05-10T04:31:08;5.18;;;3.97;;
16699;SDS011;8466;52.286;21.124;2023-05-10T04:33:37;3.80;;;3.50;;
16699;SDS011;8466;52.286;21.124;2023-05-10T04:36:06;5.28;;;3.42;;
16699;SDS011;8466;52.286;21.124;2023-05-10T04:38:34;4.93;;;4.20;;
16699;SDS011;8466;52.286;21.124;2023-05-10T04:41:05;4.88;;;3.80;;
16699;SDS011;8466;52.286;21.124;2023-05-10T04:43:34;7.43;;;4.07;;
16699;SDS011;8466;52.286;21.124;2023-05-10T04:46:03;5.37;;;4.00;;
16699;SDS011;8466;52.286;21.124;2023-05-10T04:48:33;8.70;;;4.37;;
16699;SDS011;8466;52.286;21.124;2023-05-10T04:51:01;11.97;;;3.67;;
16699;SDS011;8466;52.286;21.124;2023-05-10T04:53:31;6.67;;;4.30;;
16699;SDS011;8466;52.286;21.124;2023-05-10T04:55:59;7.30;;;4.20;;
16699;SDS011;8466;52.286;21.124;2023-05-10T04:58:29;6.97;;;4.00;;
16699;SDS011;8466;52.286;21.124;2023-05-10T05:01:04;5.97;;;4.13;;
16699;SDS011;8466;52.286;21.124;2023-05-10T05:03:33;6.50;;;3.73;;
16699;SDS011;8466;52.286;21.124;2023-05-10T05:06:03;8.20;;;4.13;;
16699;SDS011;8466;52.286;21.124;2023-05-10T05:08:31;4.53;;;3.70;;
16699;SDS011;8466;52.286;21.124;2023-05-10T05:11:00;4.53;;;3.90;;
16699;SDS011;8466;52.286;21.124;2023-05-10T05:13:30;6.33;;;3.73;;
16699;SDS011;8466;52.286;21.124;2023-05-10T05:16:00;8.40;;;4.20;;
16699;SDS011;8466;52.286;21.124;2023-05-10T05:18:29;4.60;;;3.63;;
16699;SDS011;8466;52.286;21.124;2023-05-10T05:20:58;8.53;;;4.13;;
16699;SDS011;8466;52.286;21.124;2023-05-10T05:23:27;5.57;;;3.53;;
16699;SDS011;8466;52.286;21.124;2023-05-10T05:25:59;6.10;;;3.63;;
16699;SDS011;8466;52.286;21.124;2023-05-10T05:31:03;6.50;;;3.70;;
16699;SDS011;8466;52.286;21.124;2023-05-10T05:33:32;4.73;;;3.73;;
16699;SDS011;8466;52.286;21.124;2023-05-10T05:36:01;5.37;;;3.70;;
16699;SDS011;8466;52.286;21.124;2023-05-10T05:38:31;4.60;;;3.37;;
16699;SDS011;8466;52.286;21.124;2023-05-10T05:41:00;7.53;;;3.93;;
16699;SDS011;8466;52.286;21.124;2023-05-10T05:43:29;8.27;;;6.17;;
16699;SDS011;8466;52.286;21.124;2023-05-10T05:45:59;9.53;;;3.90;;
16699;SDS011;8466;52.286;21.124;2023-05-10T05:48:29;6.03;;;3.83;;
16699;SDS011;8466;52.286;21.124;2023-05-10T05:50:57;8.17;;;3.97;;
16699;SDS011;8466;52.286;21.124;2023-05-10T05:53:26;5.20;;;3.50;;
16699;SDS011;8466;52.286;21.124;2023-05-10T05:55:56;5.10;;;3.70;;
16699;SDS011;8466;52.286;21.124;2023-05-10T05:58:27;5.23;;;3.50;;
16699;SDS011;8466;52.286;21.124;2023-05-10T06:00:56;9.50;;;3.33;;
16699;SDS011;8466;52.286;21.124;2023-05-10T06:03:26;8.83;;;3.20;;
16699;SDS011;8466;52.286;21.124;2023-05-10T06:05:54;9.37;;;3.10;;
16699;SDS011;8466;52.286;21.124;2023-05-10T06:08:23;8.43;;;3.25;;
16699;SDS011;8466;52.286;21.124;2023-05-10T06:10:52;8.30;;;3.20;;
16699;SDS011;8466;52.286;21.124;2023-05-10T06:13:20;6.60;;;3.53;;
16699;SDS011;8466;52.286;21.124;2023-05-10T06:15:49;4.63;;;3.00;;
16699;SDS011;8466;52.286;21.124;2023-05-10T06:18:18;8.50;;;3.08;;
16699;SDS011;8466;52.286;21.124;2023-05-10T06:20:48;8.70;;;3.10;;
16699;SDS011;8466;52.286;21.124;2023-05-10T06:23:18;5.57;;;3.43;;
16699;SDS011;8466;52.286;21.124;2023-05-10T06:25:46;7.72;;;2.88;;
16699;SDS011;8466;52.286;21.124;2023-05-10T06:28:15;5.80;;;3.30;;
16699;SDS011;8466;52.286;21.124;2023-05-10T06:30:44;7.65;;;3.67;;
16699;SDS011;8466;52.286;21.124;2023-05-10T06:33:12;4.93;;;3.20;;
16699;SDS011;8466;52.286;21.124;2023-05-10T06:35:42;3.78;;;2.67;;
16699;SDS011;8466;52.286;21.124;2023-05-10T06:38:12;4.50;;;2.65;;
16699;SDS011;8466;52.286;21.124;2023-05-10T06:40:41;5.03;;;2.65;;
16699;SDS011;8466;52.286;21.124;2023-05-10T06:43:10;11.32;;;3.50;;
16699;SDS011;8466;52.286;21.124;2023-05-10T06:45:39;7.30;;;3.00;;
16699;SDS011;8466;52.286;21.124;2023-05-10T06:48:08;5.68;;;2.90;;
16699;SDS011;8466;52.286;21.124;2023-05-10T06:50:36;4.15;;;2.80;;
16699;SDS011;8466;52.286;21.124;2023-05-10T06:53:05;5.97;;;3.08;;
16699;SDS011;8466;52.286;21.124;2023-05-10T06:55:35;3.10;;;2.70;;
16699;SDS011;8466;52.286;21.124;2023-05-10T06:58:03;4.18;;;2.92;;
16699;SDS011;8466;52.286;21.124;2023-05-10T07:00:32;6.55;;;2.50;;
16699;SDS011;8466;52.286;21.124;2023-05-10T07:03:01;5.38;;;2.47;;
16699;SDS011;8466;52.286;21.124;2023-05-10T07:05:29;3.65;;;2.63;;
16699;SDS011;8466;52.286;21.124;2023-05-10T07:07:58;4.50;;;2.30;;
16699;SDS011;8466;52.286;21.124;2023-05-10T07:10:27;3.53;;;2.40;;
16699;SDS011;8466;52.286;21.124;2023-05-10T07:12:57;3.05;;;2.30;;
16699;SDS011;8466;52.286;21.124;2023-05-10T07:15:26;3.00;;;2.13;;
16699;SDS011;8466;52.286;21.124;2023-05-10T07:17:55;5.68;;;2.70;;
16699;SDS011;8466;52.286;21.124;2023-05-10T07:20:24;3.42;;;2.22;;
16699;SDS011;8466;52.286;21.124;2023-05-10T07:22:52;6.05;;;2.30;;
16699;SDS011;8466;52.286;21.124;2023-05-10T07:25:21;2.85;;;2.60;;
16699;SDS011;8466;52.286;21.124;2023-05-10T07:27:50;3.30;;;2.38;;
16699;SDS011;8466;52.286;21.124;2023-05-10T07:30:20;3.22;;;2.42;;
16699;SDS011;8466;52.286;21.124;2023-05-10T07:32:49;4.60;;;2.60;;
16699;SDS011;8466;52.286;21.124;2023-05-10T07:35:20;3.08;;;2.63;;
16699;SDS011;8466;52.286;21.124;2023-05-10T07:37:50;23.30;;;3.33;;
16699;SDS011;8466;52.286;21.124;2023-05-10T07:40:18;2.33;;;2.13;;
16699;SDS011;8466;52.286;21.124;2023-05-10T07:42:47;4.32;;;2.75;;
16699;SDS011;8466;52.286;21.124;2023-05-10T07:45:15;5.20;;;2.17;;
16699;SDS011;8466;52.286;21.124;2023-05-10T07:47:45;4.90;;;2.50;;
16699;SDS011;8466;52.286;21.124;2023-05-10T07:50:14;4.50;;;2.55;;
16699;SDS011;8466;52.286;21.124;2023-05-10T07:52:43;2.47;;;2.22;;
16699;SDS011;8466;52.286;21.124;2023-05-10T07:55:11;4.43;;;2.22;;
16699;SDS011;8466;52.286;21.124;2023-05-10T07:57:41;3.92;;;2.45;;
16699;SDS011;8466;52.286;21.124;2023-05-10T08:00:11;3.08;;;2.10;;
16699;SDS011;8466;52.286;21.124;2023-05-10T08:02:45;5.88;;;2.55;;
16699;SDS011;8466;52.286;21.124;2023-05-10T08:05:15;8.93;;;2.80;;
16699;SDS011;8466;52.286;21.124;2023-05-10T08:07:44;4.93;;;2.60;;
16699;SDS011;8466;52.286;21.124;2023-05-10T08:10:13;5.47;;;2.70;;
16699;SDS011;8466;52.286;21.124;2023-05-10T08:12:41;7.07;;;2.80;;
16699;SDS011;8466;52.286;21.124;2023-05-10T08:15:10;3.95;;;2.70;;
16699;SDS011;8466;52.286;21.124;2023-05-10T08:17:39;3.03;;;2.30;;
16699;SDS011;8466;52.286;21.124;2023-05-10T08:20:09;3.63;;;2.65;;
16699;SDS011;8466;52.286;21.124;2023-05-10T08:22:39;7.30;;;3.03;;
16699;SDS011;8466;52.286;21.124;2023-05-10T08:25:07;8.27;;;2.88;;
16699;SDS011;8466;52.286;21.124;2023-05-10T08:27:36;3.45;;;2.35;;
16699;SDS011;8466;52.286;21.124;2023-05-10T08:30:05;5.53;;;2.22;;
16699;SDS011;8466;52.286;21.124;2023-05-10T08:32:35;5.53;;;2.50;;
16699;SDS011;8466;52.286;21.124;2023-05-10T08:35:05;3.60;;;2.50;;
16699;SDS011;8466;52.286;21.124;2023-05-10T08:37:35;6.47;;;2.55;;
16699;SDS011;8466;52.286;21.124;2023-05-10T08:40:04;7.00;;;2.67;;
16699;SDS011;8466;52.286;21.124;2023-05-10T08:42:34;7.53;;;2.60;;
16699;SDS011;8466;52.286;21.124;2023-05-10T08:45:04;3.15;;;2.33;;
16699;SDS011;8466;52.286;21.124;2023-05-10T08:47:35;6.68;;;2.83;;
16699;SDS011;8466;52.286;21.124;2023-05-10T08:50:06;4.30;;;2.50;;
16699;SDS011;8466;52.286;21.124;2023-05-10T08:52:37;6.00;;;2.53;;
16699;SDS011;8466;52.286;21.124;2023-05-10T08:55:08;3.35;;;2.25;;
16699;SDS011;8466;52.286;21.124;2023-05-10T08:57:37;5.07;;;2.47;;
16699;SDS011;8466;52.286;21.124;2023-05-10T09:00:06;3.58;;;2.63;;
16699;SDS011;8466;52.286;21.124;2023-05-10T09:02:36;3.22;;;2.20;;
16699;SDS011;8466;52.286;21.124;2023-05-10T09:05:05;5.40;;;2.80;;
16699;SDS011;8466;52.286;21.124;2023-05-10T09:07:37;3.45;;;2.38;;
16699;SDS011;8466;52.286;21.124;2023-05-10T09:10:06;4.65;;;2.30;;
16699;SDS011;8466;52.286;21.124;2023-05-10T09:12:37;7.47;;;2.70;;
16699;SDS011;8466;52.286;21.124;2023-05-10T09:15:06;5.35;;;2.58;;
16699;SDS011;8466;52.286;21.124;2023-05-10T09:17:37;4.25;;;2.70;;
16699;SDS011;8466;52.286;21.124;2023-05-10T09:20:08;7.05;;;2.30;;
16699;SDS011;8466;52.286;21.124;2023-05-10T09:22:38;3.78;;;2.70;;
16699;SDS011;8466;52.286;21.124;2023-05-10T09:25:07;5.43;;;2.35;;
16699;SDS011;8466;52.286;21.124;2023-05-10T09:27:38;4.30;;;2.55;;
16699;SDS011;8466;52.286;21.124;2023-05-10T09:30:07;6.00;;;2.50;;
16699;SDS011;8466;52.286;21.124;2023-05-10T09:32:37;3.60;;;2.30;;
16699;SDS011;8466;52.286;21.124;2023-05-10T09:35:07;3.05;;;2.30;;
16699;SDS011;8466;52.286;21.124;2023-05-10T09:37:39;2.47;;;2.22;;
16699;SDS011;8466;52.286;21.124;2023-05-10T09:40:11;5.25;;;2.80;;
16699;SDS011;8466;52.286;21.124;2023-05-10T09:42:42;5.32;;;2.40;;
16699;SDS011;8466;52.286;21.124;2023-05-10T09:45:18;4.20;;;2.25;;
16699;SDS011;8466;52.286;21.124;2023-05-10T09:47:47;7.20;;;2.67;;
16699;SDS011;8466;52.286;21.124;2023-05-10T09:50:16;14.20;;;3.45;;
16699;SDS011;8466;52.286;21.124;2023-05-10T09:52:49;6.93;;;2.42;;
16699;SDS011;8466;52.286;21.124;2023-05-10T09:55:20;3.45;;;2.38;;
16699;SDS011;8466;52.286;21.124;2023-05-10T09:57:58;4.05;;;2.67;;
16699;SDS011;8466;52.286;21.124;2023-05-10T10:00:27;4.38;;;2.50;;
16699;SDS011;8466;52.286;21.124;2023-05-10T10:03:02;5.85;;;2.80;;
16699;SDS011;8466;52.286;21.124;2023-05-10T10:05:32;2.60;;;2.40;;
16699;SDS011;8466;52.286;21.124;2023-05-10T10:08:05;2.63;;;2.28;;
16699;SDS011;8466;52.286;21.124;2023-05-10T10:10:34;7.18;;;2.42;;
16699;SDS011;8466;52.286;21.124;2023-05-10T10:13:03;3.63;;;2.50;;
16699;SDS011;8466;52.286;21.124;2023-05-10T10:15:32;4.43;;;2.25;;
16699;SDS011;8466;52.286;21.124;2023-05-10T10:18:02;3.03;;;2.30;;
16699;SDS011;8466;52.286;21.124;2023-05-10T10:20:31;4.65;;;2.65;;
16699;SDS011;8466;52.286;21.124;2023-05-10T10:23:00;8.05;;;3.13;;
16699;SDS011;8466;52.286;21.124;2023-05-10T10:25:30;11.90;;;2.65;;
16699;SDS011;8466;52.286;21.124;2023-05-10T10:28:03;4.85;;;2.35;;
16699;SDS011;8466;52.286;21.124;2023-05-10T10:30:41;5.68;;;2.50;;
16699;SDS011;8466;52.286;21.124;2023-05-10T10:33:19;3.42;;;2.35;;
16699;SDS011;8466;52.286;21.124;2023-05-10T10:36:04;4.22;;;2.70;;
16699;SDS011;8466;52.286;21.124;2023-05-10T10:38:36;5.75;;;2.60;;
16699;SDS011;8466;52.286;21.124;2023-05-10T10:41:32;5.95;;;2.50;;
16699;SDS011;8466;52.286;21.124;2023-05-10T10:46:59;4.70;;;2.67;;
16699;SDS011;8466;52.286;21.124;2023-05-10T10:49:37;7.75;;;3.45;;
16699;SDS011;8466;52.286;21.124;2023-05-10T10:52:13;5.60;;;2.30;;
16699;SDS011;8466;52.286;21.124;2023-05-10T10:54:58;5.63;;;2.47;;
16699;SDS011;8466;52.286;21.124;2023-05-10T10:57:32;3.45;;;2.45;;
16699;SDS011;8466;52.286;21.124;2023-05-10T11:00:18;4.28;;;2.55;;
16699;SDS011;8466;52.286;21.124;2023-05-10T11:02:56;5.43;;;2.78;;
16699;SDS011;8466;52.286;21.124;2023-05-10T11:08:17;7.45;;;3.03;;
16699;SDS011;8466;52.286;21.124;2023-05-10T11:10:54;4.50;;;2.70;;
16699;SDS011;8466;52.286;21.124;2023-05-10T11:13:37;4.82;;;2.85;;
16699;SDS011;8466;52.286;21.124;2023-05-10T11:16:11;8.27;;;2.80;;
16699;SDS011;8466;52.286;21.124;2023-05-10T11:18:51;8.43;;;2.72;;
16699;SDS011;8466;52.286;21.124;2023-05-10T11:21:28;8.15;;;3.10;;
16699;SDS011;8466;52.286;21.124;2023-05-10T11:23:58;8.35;;;2.78;;
16699;SDS011;8466;52.286;21.124;2023-05-10T11:26:33;4.13;;;2.58;;
16699;SDS011;8466;52.286;21.124;2023-05-10T11:29:05;4.50;;;2.60;;
16699;SDS011;8466;52.286;21.124;2023-05-10T11:31:34;8.40;;;2.70;;
16699;SDS011;8466;52.286;21.124;2023-05-10T11:34:10;5.00;;;2.40;;
16699;SDS011;8466;52.286;21.124;2023-05-10T11:36:40;4.10;;;2.47;;
16699;SDS011;8466;52.286;21.124;2023-05-10T11:39:09;7.78;;;2.83;;
16699;SDS011;8466;52.286;21.124;2023-05-10T11:41:39;4.70;;;2.60;;
16699;SDS011;8466;52.286;21.124;2023-05-10T11:44:17;3.95;;;2.33;;
16699;SDS011;8466;52.286;21.124;2023-05-10T11:46:49;6.60;;;2.78;;
16699;SDS011;8466;52.286;21.124;2023-05-10T11:49:18;7.70;;;2.55;;
16699;SDS011;8466;52.286;21.124;2023-05-10T11:51:48;3.97;;;2.42;;
16699;SDS011;8466;52.286;21.124;2023-05-10T11:54:17;3.08;;;2.45;;
16699;SDS011;8466;52.286;21.124;2023-05-10T11:56:45;2.40;;;2.20;;
16699;SDS011;8466;52.286;21.124;2023-05-10T11:59:15;5.68;;;2.55;;
16699;SDS011;8466;52.286;21.124;2023-05-10T12:01:44;6.55;;;2.90;;
16699;SDS011;8466;52.286;21.124;2023-05-10T12:04:13;6.05;;;2.33;;
16699;SDS011;8466;52.286;21.124;2023-05-10T12:06:42;4.65;;;2.65;;
16699;SDS011;8466;52.286;21.124;2023-05-10T12:09:13;3.50;;;2.65;;
16699;SDS011;8466;52.286;21.124;2023-05-10T12:11:48;7.68;;;2.75;;
16699;SDS011;8466;52.286;21.124;2023-05-10T12:14:18;4.70;;;2.28;;
16699;SDS011;8466;52.286;21.124;2023-05-10T12:16:48;11.23;;;2.70;;
16699;SDS011;8466;52.286;21.124;2023-05-10T12:19:18;6.32;;;2.78;;
16699;SDS011;8466;52.286;21.124;2023-05-10T12:21:47;6.63;;;2.60;;
16699;SDS011;8466;52.286;21.124;2023-05-10T12:24:16;6.13;;;2.65;;
16699;SDS011;8466;52.286;21.124;2023-05-10T12:26:45;4.22;;;2.08;;
16699;SDS011;8466;52.286;21.124;2023-05-10T12:29:33;3.05;;;2.47;;
16699;SDS011;8466;52.286;21.124;2023-05-10T12:32:02;4.85;;;2.50;;
16699;SDS011;8466;52.286;21.124;2023-05-10T12:34:31;3.53;;;2.63;;
16699;SDS011;8466;52.286;21.124;2023-05-10T12:37:01;3.08;;;2.78;;
16699;SDS011;8466;52.286;21.124;2023-05-10T12:39:40;5.22;;;2.30;;
16699;SDS011;8466;52.286;21.124;2023-05-10T12:42:09;3.17;;;2.58;;
16699;SDS011;8466;52.286;21.124;2023-05-10T12:44:40;13.45;;;3.28;;
16699;SDS011;8466;52.286;21.124;2023-05-10T12:47:08;5.30;;;2.42;;
16699;SDS011;8466;52.286;21.124;2023-05-10T12:49:37;3.58;;;2.63;;
16699;SDS011;8466;52.286;21.124;2023-05-10T12:52:05;2.85;;;2.63;;
16699;SDS011;8466;52.286;21.124;2023-05-10T12:54:34;3.28;;;2.20;;
16699;SDS011;8466;52.286;21.124;2023-05-10T12:57:03;4.65;;;2.40;;
16699;SDS011;8466;52.286;21.124;2023-05-10T12:59:31;3.05;;;2.33;;
16699;SDS011;8466;52.286;21.124;2023-05-10T13:02:05;4.82;;;2.10;;
16699;SDS011;8466;52.286;21.124;2023-05-10T13:04:34;2.50;;;2.30;;
16699;SDS011;8466;52.286;21.124;2023-05-10T13:07:05;2.58;;;2.38;;
16699;SDS011;8466;52.286;21.124;2023-05-10T13:09:34;3.22;;;2.40;;
16699;SDS011;8466;52.286;21.124;2023-05-10T13:12:03;3.85;;;2.42;;
16699;SDS011;8466;52.286;21.124;2023-05-10T13:14:35;6.05;;;2.33;;
16699;SDS011;8466;52.286;21.124;2023-05-10T13:17:05;2.78;;;2.53;;
16699;SDS011;8466;52.286;21.124;2023-05-10T13:19:34;6.38;;;2.60;;
16699;SDS011;8466;52.286;21.124;2023-05-10T13:22:03;5.57;;;2.75;;
16699;SDS011;8466;52.286;21.124;2023-05-10T13:24:31;2.75;;;2.50;;
16699;SDS011;8466;52.286;21.124;2023-05-10T13:27:00;2.45;;;2.25;;
16699;SDS011;8466;52.286;21.124;2023-05-10T13:29:29;5.82;;;2.78;;
16699;SDS011;8466;52.286;21.124;2023-05-10T13:31:58;5.35;;;2.88;;
16699;SDS011;8466;52.286;21.124;2023-05-10T13:34:28;5.55;;;2.50;;
16699;SDS011;8466;52.286;21.124;2023-05-10T13:36:57;4.63;;;2.13;;
16699;SDS011;8466;52.286;21.124;2023-05-10T13:39:26;6.55;;;2.40;;
16699;SDS011;8466;52.286;21.124;2023-05-10T13:41:57;5.65;;;2.67;;
16699;SDS011;8466;52.286;21.124;2023-05-10T13:44:26;4.03;;;2.50;;
16699;SDS011;8466;52.286;21.124;2023-05-10T13:46:54;7.50;;;2.40;;
16699;SDS011;8466;52.286;21.124;2023-05-10T13:49:23;4.75;;;2.40;;
16699;SDS011;8466;52.286;21.124;2023-05-10T13:51:53;3.13;;;2.45;;
16699;SDS011;8466;52.286;21.124;2023-05-10T13:54:22;4.72;;;2.15;;
16699;SDS011;8466;52.286;21.124;2023-05-10T13:56:51;3.80;;;2.28;;
16699;SDS011;8466;52.286;21.124;2023-05-10T13:59:20;4.22;;;2.10;;
16699;SDS011;8466;52.286;21.124;2023-05-10T14:01:48;2.30;;;2.10;;
16699;SDS011;8466;52.286;21.124;2023-05-10T14:04:17;2.30;;;2.10;;
16699;SDS011;8466;52.286;21.124;2023-05-10T14:06:46;4.03;;;2.25;;
16699;SDS011;8466;52.286;21.124;2023-05-10T14:09:16;7.35;;;2.30;;
16699;SDS011;8466;52.286;21.124;2023-05-10T14:11:45;2.22;;;2.10;;
16699;SDS011;8466;52.286;21.124;2023-05-10T14:14:19;4.57;;;2.10;;
16699;SDS011;8466;52.286;21.124;2023-05-10T14:16:50;8.98;;;2.67;;
16699;SDS011;8466;52.286;21.124;2023-05-10T14:19:19;4.70;;;1.95;;
16699;SDS011;8466;52.286;21.124;2023-05-10T14:21:51;2.58;;;2.35;;
16699;SDS011;8466;52.286;21.124;2023-05-10T14:24:21;2.60;;;2.30;;
16699;SDS011;8466;52.286;21.124;2023-05-10T14:26:50;4.47;;;2.38;;
16699;SDS011;8466;52.286;21.124;2023-05-10T14:29:20;5.43;;;2.70;;
16699;SDS011;8466;52.286;21.124;2023-05-10T14:31:49;4.40;;;2.13;;
16699;SDS011;8466;52.286;21.124;2023-05-10T14:34:18;2.55;;;2.15;;
16699;SDS011;8466;52.286;21.124;2023-05-10T14:36:46;6.40;;;3.00;;
16699;SDS011;8466;52.286;21.124;2023-05-10T14:39:15;2.50;;;2.30;;
16699;SDS011;8466;52.286;21.124;2023-05-10T14:41:45;2.47;;;2.28;;
16699;SDS011;8466;52.286;21.124;2023-05-10T14:44:14;3.10;;;2.22;;
16699;SDS011;8466;52.286;21.124;2023-05-10T14:46:42;2.40;;;2.00;;
16699;SDS011;8466;52.286;21.124;2023-05-10T14:49:11;2.78;;;2.42;;
16699;SDS011;8466;52.286;21.124;2023-05-10T14:51:40;5.53;;;2.20;;
16699;SDS011;8466;52.286;21.124;2023-05-10T14:54:08;4.80;;;2.40;;
16699;SDS011;8466;52.286;21.124;2023-05-10T14:56:37;5.45;;;2.08;;
16699;SDS011;8466;52.286;21.124;2023-05-10T14:59:09;3.83;;;2.20;;
16699;SDS011;8466;52.286;21.124;2023-05-10T15:01:38;6.60;;;2.25;;
16699;SDS011;8466;52.286;21.124;2023-05-10T15:04:09;4.50;;;2.50;;
16699;SDS011;8466;52.286;21.124;2023-05-10T15:06:39;9.75;;;2.25;;
16699;SDS011;8466;52.286;21.124;2023-05-10T15:09:08;5.60;;;2.80;;
16699;SDS011;8466;52.286;21.124;2023-05-10T15:11:36;3.33;;;2.22;;
16699;SDS011;8466;52.286;21.124;2023-05-10T15:14:05;2.42;;;2.15;;
16699;SDS011;8466;52.286;21.124;2023-05-10T15:16:35;4.75;;;2.22;;
16699;SDS011;8466;52.286;21.124;2023-05-10T15:19:04;3.03;;;2.13;;
16699;SDS011;8466;52.286;21.124;2023-05-10T15:21:33;2.70;;;2.50;;